Time;durP1;ratioP1;P1;durP2;ratioP2;P2;SDS_P1;SDS_P2;PMS_P1;PMS_P2;Temp;Humidity;BMP_temperature;BMP_pressure;BME280_temperature;BME280_humidity;BME280_pressure;Samples;Min_cycle;Max_cycle;Signal;HPM_P1;HPM_P2
2021/12/12 00:00:45;;;;;;;3.92;2.50;;;15.20;73.50;;;;;;5015413;28;19996;-46
2021/12/12 00:03:31;;;;;;;4.78;2.20;;;15.30;73.80;;;;;;5015636;28;20025;-46
2021/12/12 00:05:57;;;;;;;4.97;2.53;;;;;;;;;;5015395;28;20037;-46
2021/12/12 00:08:24;;;;;;;7.13;2.80;;;15.20;77.30;;;;;;5015388;28;20033;-46
2021/12/12 00:10:55;;;;;;;6.50;2.88;;;15.30;79.00;;;;;;5015167;28;20396;-46
2021/12/12 00:13:27;;;;;;;5.75;2.50;;;15.20;79.10;;;;;;5015405;28;20037;-46
2021/12/12 00:15:53;;;;;;;5.18;2.65;;;;;;;;;;5015184;28;20137;-46
2021/12/12 00:18:19;;;;;;;6.72;2.40;;;;;;;;;;5014993;28;20060;-46
2021/12/12 00:20:46;;;;;;;3.47;2.15;;;15.20;79.40;;;;;;5014977;28;20384;-46
2021/12/12 00:23:12;;;;;;;6.05;2.80;;;;;;;;;;5014853;28;20033;-47
2021/12/12 00:25:45;;;;;;;4.57;2.42;;;15.10;79.30;;;;;;5014816;28;20030;-48
2021/12/12 00:28:13;;;;;;;6.88;2.67;;;15.20;79.10;;;;;;5014953;28;20028;-46
2021/12/12 00:30:39;;;;;;;6.55;2.75;;;;;;;;;;5015083;28;20073;-47
2021/12/12 00:33:05;;;;;;;5.50;2.22;;;15.10;76.10;;;;;;5014722;28;20041;-47
2021/12/12 00:35:31;;;;;;;5.75;2.58;;;;;;;;;;5014705;28;20305;-46
2021/12/12 00:38:01;;;;;;;4.97;2.50;;;15.10;79.40;;;;;;5014772;28;20474;-46
2021/12/12 00:40:41;;;;;;;4.60;2.45;;;15.10;79.40;;;;;;5014932;28;20361;-46
2021/12/12 00:43:14;;;;;;;5.88;2.35;;;14.90;79.20;;;;;;5014686;28;20056;-47
2021/12/12 00:45:41;;;;;;;3.22;2.30;;;15.10;78.60;;;;;;5014672;28;20026;-46
2021/12/12 00:48:07;;;;;;;6.70;2.63;;;;;;;;;;5014558;28;20060;-46
2021/12/12 00:50:38;;;;;;;5.60;2.85;;;15.10;79.50;;;;;;5014477;28;20465;-46
2021/12/12 00:53:06;;;;;;;7.15;2.90;;;15.20;79.70;;;;;;5014058;28;20516;-46
2021/12/12 00:55:37;;;;;;;2.67;2.08;;;15.10;75.90;;;;;;5014420;28;20026;-46
2021/12/12 00:58:04;;;;;;;4.13;2.63;;;15.10;78.50;;;;;;5014395;28;20026;-46
2021/12/12 01:00:36;;;;;;;4.25;2.78;;;15.00;79.60;;;;;;5014233;28;20025;-46
2021/12/12 01:03:04;;;;;;;3.90;2.42;;;15.00;79.50;;;;;;5014598;28;20392;-45
2021/12/12 01:05:31;;;;;;;3.53;2.17;;;15.00;77.40;;;;;;5014151;28;20021;-46
2021/12/12 01:07:57;;;;;;;5.53;2.75;;;;;;;;;;5014074;28;20075;-46
2021/12/12 01:10:35;;;;;;;4.82;2.40;;;15.00;73.80;;;;;;5014031;28;20037;-46
2021/12/12 01:13:04;;;;;;;5.47;2.50;;;15.00;79.50;;;;;;5013965;28;20033;-45
2021/12/12 01:15:37;;;;;;;5.25;2.38;;;15.00;73.90;;;;;;5014204;28;20034;-47
2021/12/12 01:18:14;;;;;;;4.78;2.30;;;15.00;79.50;;;;;;5014230;28;20366;-46
2021/12/12 01:21:02;;;;;;;3.92;2.38;;;15.00;79.70;;;;;;5013860;28;20029;-46
2021/12/12 01:23:43;;;;;;;5.53;2.80;;;15.10;74.00;;;;;;5013346;28;20512;-46
2021/12/12 01:26:10;;;;;;;3.70;2.15;;;15.00;79.70;;;;;;5013850;28;20029;-46
2021/12/12 01:28:43;;;;;;;6.40;2.47;;;14.90;79.50;;;;;;5013768;28;20109;-46
2021/12/12 01:31:15;;;;;;;4.05;1.92;;;14.70;79.90;;;;;;5013695;28;20385;-46
2021/12/12 01:33:41;;;;;;;3.05;2.08;;;14.90;77.40;;;;;;5013684;28;20029;-47
2021/12/12 01:36:24;;;;;;;4.78;2.30;;;14.90;74.10;;;;;;5013530;28;20113;-46
2021/12/12 01:38:56;;;;;;;5.35;2.35;;;14.90;78.60;;;;;;5013855;28;20037;-46
2021/12/12 01:41:35;;;;;;;3.05;2.15;;;14.90;79.40;;;;;;5013745;28;20021;-45
2021/12/12 01:44:08;;;;;;;4.65;2.03;;;14.90;79.80;;;;;;5013535;28;20018;-46
2021/12/12 01:46:40;;;;;;;5.38;2.33;;;15.00;79.90;;;;;;5013436;28;20025;-46
2021/12/12 01:49:16;;;;;;;3.88;2.22;;;14.90;74.10;;;;;;5013371;28;20041;-45
2021/12/12 01:51:44;;;;;;;4.30;2.05;;;14.80;79.60;;;;;;5013154;28;20516;-45
2021/12/12 01:54:12;;;;;;;4.80;1.92;;;14.90;79.60;;;;;;5012868;28;20042;-45
2021/12/12 01:56:43;;;;;;;3.72;1.98;;;14.90;80.00;;;;;;5013125;28;20575;-45
2021/12/12 01:59:12;;;;;;;3.72;2.00;;;14.80;79.90;;;;;;5013210;28;20431;-46
2021/12/12 02:02:03;;;;;;;3.30;1.83;;;14.90;79.90;;;;;;5013101;28;20538;-46
2021/12/12 02:04:34;;;;;;;4.00;1.88;;;14.90;79.70;;;;;;5004974;28;20041;-46
2021/12/12 02:07:01;;;;;;;4.10;1.85;;;14.90;79.80;;;;;;5011970;28;20192;-45
2021/12/12 02:09:27;;;;;;;4.57;1.77;;;;;;;;;;5013051;28;20045;-47
2021/12/12 02:11:58;;;;;;;4.40;2.38;;;14.80;79.90;;;;;;5012991;28;20050;-45
2021/12/12 02:14:26;;;;;;;3.67;2.03;;;14.80;79.60;;;;;;5013040;28;20022;-46
2021/12/12 02:16:58;;;;;;;4.35;2.15;;;14.80;79.80;;;;;;5013329;28;20041;-46
2021/12/12 02:19:36;;;;;;;3.63;1.80;;;14.80;77.20;;;;;;5013284;28;20022;-46
2021/12/12 02:22:29;;;;;;;3.45;1.80;;;14.80;79.70;;;;;;5013140;28;20029;-46
2021/12/12 02:35:57;;;;;;;4.18;2.40;;;;;;;;;;5012998;28;20105;-46
2021/12/12 02:38:32;;;;;;;3.25;1.95;;;14.80;80.20;;;;;;5012724;28;20117;-47
2021/12/12 02:41:12;;;;;;;4.80;2.05;;;14.70;80.00;;;;;;5012560;28;20030;-46
2021/12/12 02:43:47;;;;;;;4.07;2.28;;;14.70;74.10;;;;;;5012535;28;20113;-47
2021/12/12 02:46:16;;;;;;;5.50;2.08;;;;;;;;;;5012844;28;20022;-46
2021/12/12 02:48:44;;;;;;;4.22;1.85;;;14.80;80.30;;;;;;5011608;28;20463;-45
2021/12/12 02:51:15;;;;;;;3.97;1.80;;;14.90;80.30;;;;;;5012453;28;20036;-46
2021/12/12 02:53:47;;;;;;;3.33;2.20;;;14.70;79.50;;;;;;5012229;28;20042;-47
2021/12/12 02:56:18;;;;;;;4.78;2.20;;;14.70;79.50;;;;;;5012795;28;20022;-47
2021/12/12 02:58:45;;;;;;;3.20;1.70;;;14.70;78.90;;;;;;5012364;28;20116;-46
2021/12/12 03:01:11;;;;;;;5.45;2.00;;;;;;;;;;5012434;28;20154;-46
2021/12/12 03:03:38;;;;;;;2.92;1.70;;;14.70;79.40;;;;;;5012344;28;20026;-46
2021/12/12 03:06:11;;;;;;;4.72;2.28;;;14.70;74.20;;;;;;5012247;28;20397;-46
2021/12/12 03:08:41;;;;;;;3.08;2.08;;;14.60;80.30;;;;;;5012299;28;20026;-47
2021/12/12 03:11:07;;;;;;;2.72;1.45;;;14.70;78.20;;;;;;5012256;28;20033;-46
2021/12/12 03:13:33;;;;;;;4.20;1.95;;;;;;;;;;5012266;28;20045;-46
2021/12/12 03:15:59;;;;;;;6.15;1.85;;;;;;;;;;5012225;28;20084;-46
2021/12/12 03:18:33;;;;;;;4.03;2.00;;;14.70;72.60;;;;;;5012286;28;20030;-46
2021/12/12 03:21:08;;;;;;;4.38;1.73;;;14.60;77.60;;;;;;5012485;28;20353;-45
2021/12/12 03:23:35;;;;;;;3.47;1.77;;;14.60;78.20;;;;;;5012533;28;20018;-47
2021/12/12 03:26:05;;;;;;;5.05;1.63;;;14.60;77.90;;;;;;5012189;28;20492;-46
2021/12/12 03:28:35;;;;;;;4.13;2.10;;;14.60;78.50;;;;;;5012155;28;20081;-46
2021/12/12 03:31:04;;;;;;;3.40;1.48;;;14.60;78.10;;;;;;5012502;28;20038;-46
2021/12/12 03:33:31;;;;;;;2.95;1.73;;;14.60;78.20;;;;;;5012126;28;20041;-46
2021/12/12 03:35:58;;;;;;;3.28;1.40;;;14.60;78.10;;;;;;5012088;28;20052;-46
2021/12/12 03:38:27;;;;;;;2.88;1.63;;;14.60;78.80;;;;;;5012014;28;20385;-46
2021/12/12 03:40:56;;;;;;;3.42;2.00;;;14.60;78.00;;;;;;5012132;28;20040;-46
2021/12/12 03:43:22;;;;;;;4.13;2.30;;;;;;;;;;5012120;28;20033;-46
2021/12/12 03:45:48;;;;;;;3.28;2.00;;;;;;;;;;5012036;28;20507;-46
2021/12/12 03:48:27;;;;;;;3.60;1.90;;;14.60;72.50;;;;;;5012032;28;20038;-46
2021/12/12 03:50:56;;;;;;;2.58;1.88;;;14.60;77.90;;;;;;5011943;28;20026;-47
2021/12/12 03:53:22;;;;;;;3.05;1.98;;;;;;;;;;5011626;28;20042;-46
2021/12/12 03:55:49;;;;;;;2.97;1.75;;;14.50;77.90;;;;;;5011972;28;20388;-46
2021/12/12 03:58:15;;;;;;;2.80;1.77;;;;;;;;;;5011850;28;20022;-46
2021/12/12 04:00:48;;;;;;;3.20;1.90;;;14.50;77.70;;;;;;5013624;28;20026;-46
2021/12/12 04:03:15;;;;;;;3.17;1.95;;;14.60;76.80;;;;;;5015404;28;20037;-46
2021/12/12 04:05:50;;;;;;;4.18;1.70;;;14.60;78.90;;;;;;5015380;28;20044;-46
2021/12/12 04:08:17;;;;;;;2.55;1.48;;;;;;;;;;5015366;28;20030;-47
2021/12/12 04:10:43;;;;;;;3.88;2.00;;;;;;;;;;5015256;28;20029;-47
2021/12/12 04:13:09;;;;;;;5.43;1.90;;;14.50;76.00;;;;;;5015096;28;20060;-47
2021/12/12 04:15:35;;;;;;;3.10;1.75;;;14.50;77.00;;;;;;5015430;28;20069;-46
2021/12/12 04:18:02;;;;;;;2.92;1.60;;;14.50;76.40;;;;;;5015179;28;20113;-45
2021/12/12 04:20:33;;;;;;;2.85;1.65;;;14.50;77.80;;;;;;5015060;28;20477;-46
2021/12/12 04:22:59;;;;;;;3.17;1.67;;;;;;;;;;5015020;28;20057;-46
2021/12/12 04:25:26;;;;;;;2.35;1.73;;;;;;;;;;5014961;28;20030;-46
2021/12/12 04:27:53;;;;;;;2.90;1.60;;;14.50;78.90;;;;;;5015002;28;20065;-46
2021/12/12 04:30:19;;;;;;;3.53;1.90;;;;;;;;;;5014776;28;20062;-46
2021/12/12 04:32:46;;;;;;;2.00;1.48;;;14.50;78.10;;;;;;5014719;28;20041;-46
2021/12/12 04:35:22;;;;;;;3.92;1.85;;;14.80;73.40;;;;;;5014722;28;20081;-45
2021/12/12 04:37:48;;;;;;;2.97;1.67;;;;;;;;;;5014724;28;20084;-46
2021/12/12 04:40:18;;;;;;;4.50;1.95;;;14.40;78.00;;;;;;5014657;28;20637;-46
2021/12/12 04:42:46;;;;;;;2.92;1.73;;;14.50;78.20;;;;;;5014650;28;20033;-46
2021/12/12 04:45:51;;;;;;;2.53;1.65;;;14.50;72.70;;;;;;5014660;28;20022;-54
2021/12/12 04:51:17;;;;;;;2.45;1.70;;;14.40;78.10;;;;;;5014515;28;20503;-53
2021/12/12 04:53:49;;;;;;;2.85;1.50;;;14.50;78.90;;;;;;5014212;28;20050;-55
2021/12/12 04:56:40;;;;;;;5.10;1.70;;;14.50;78.30;;;;;;5014425;28;20018;-54
2021/12/12 04:59:24;;;;;;;2.47;1.77;;;14.50;73.00;;;;;;5014334;28;20026;-51
2021/12/12 05:02:08;;;;;;;3.85;1.88;;;14.40;72.90;;;;;;5014354;28;20022;-54
2021/12/12 05:04:48;;;;;;;3.25;1.77;;;14.50;78.50;;;;;;5014252;28;20034;-55
2021/12/12 05:07:19;;;;;;;3.00;1.58;;;14.40;73.20;;;;;;5014333;28;20025;-54
2021/12/12 05:09:54;;;;;;;2.25;1.65;;;14.50;78.40;;;;;;5014153;28;20101;-55
2021/12/12 05:12:32;;;;;;;2.80;1.40;;;14.60;72.80;;;;;;5013024;28;20440;-55
2021/12/12 05:15:06;;;;;;;2.97;1.58;;;14.30;78.00;;;;;;5014062;28;20097;-53
2021/12/12 05:17:44;;;;;;;1.92;1.50;;;14.50;72.80;;;;;;5014016;28;20030;-55
2021/12/12 05:20:16;;;;;;;2.85;1.77;;;14.30;78.20;;;;;;5014000;28;20026;-52
2021/12/12 05:22:46;;;;;;;1.60;1.30;;;14.40;78.10;;;;;;5013941;28;20029;-54
2021/12/12 05:25:20;;;;;;;1.95;1.60;;;14.40;78.90;;;;;;5013857;28;20025;-55
2021/12/12 05:27:49;;;;;;;2.28;1.60;;;14.40;78.30;;;;;;5013890;28;20030;-51
2021/12/12 05:30:29;;;;;;;3.03;1.70;;;14.30;72.50;;;;;;5014067;28;20053;-53
2021/12/12 05:32:56;;;;;;;2.67;1.75;;;14.20;76.80;;;;;;5013693;28;20030;-54
2021/12/12 05:35:25;;;;;;;3.33;2.08;;;14.40;78.20;;;;;;5013715;28;20453;-54
2021/12/12 05:37:53;;;;;;;1.83;1.43;;;14.40;78.10;;;;;;5013680;28;20050;-54
2021/12/12 05:40:23;;;;;;;3.03;1.40;;;14.40;78.20;;;;;;5013686;28;20057;-50
2021/12/12 05:42:52;;;;;;;2.33;1.60;;;14.40;78.70;;;;;;5013554;28;20407;-55
2021/12/12 05:45:18;;;;;;;2.50;1.75;;;;;;;;;;5013485;28;20033;-54
2021/12/12 05:47:44;;;;;;;2.20;1.52;;;;;;;;;;5013500;28;20061;-55
2021/12/12 05:50:13;;;;;;;2.58;2.03;;;14.40;78.10;;;;;;5013392;28;20049;-53
2021/12/12 05:52:41;;;;;;;1.98;1.60;;;14.40;78.80;;;;;;5013006;28;20160;-54
2021/12/12 05:55:09;;;;;;;3.42;1.98;;;14.40;78.00;;;;;;5013309;28;20045;-51
2021/12/12 05:57:35;;;;;;;2.60;1.60;;;;;;;;;;5013255;28;20503;-54
2021/12/12 06:00:07;;;;;;;2.63;1.77;;;14.30;77.90;;;;;;5013250;28;20072;-51
2021/12/12 06:02:33;;;;;;;1.83;1.55;;;;;;;;;;5013234;28;20034;-53
2021/12/12 06:04:59;;;;;;;2.42;1.67;;;;;;;;;;5013149;28;20037;-53
2021/12/12 06:07:26;;;;;;;1.90;1.70;;;14.30;78.00;;;;;;5013121;28;20030;-53
2021/12/12 06:09:52;;;;;;;2.35;1.38;;;;;;;;;;5013278;28;20025;-54
2021/12/12 06:12:19;;;;;;;3.15;2.08;;;14.60;78.80;;;;;;5012925;28;20042;-53
2021/12/12 06:14:47;;;;;;;2.60;1.85;;;14.70;78.50;;;;;;5012928;28;20026;-51
2021/12/12 06:17:16;;;;;;;2.47;1.52;;;14.70;78.50;;;;;;5013235;28;20436;-52
2021/12/12 06:19:43;;;;;;;2.22;1.50;;;14.90;78.40;;;;;;5012929;28;20472;-53
2021/12/12 06:22:09;;;;;;;2.20;1.65;;;;;;;;;;5013176;28;20033;-54
2021/12/12 06:24:37;;;;;;;3.65;1.60;;;15.10;78.60;;;;;;5012655;28;20101;-55
2021/12/12 06:27:10;;;;;;;2.80;1.40;;;15.20;78.50;;;;;;5012917;28;20087;-54
2021/12/12 06:29:36;;;;;;;3.38;1.83;;;15.20;75.50;;;;;;5012822;28;20072;-53
2021/12/12 06:32:04;;;;;;;3.40;1.92;;;15.30;78.50;;;;;;5012740;28;20038;-53
2021/12/12 06:34:30;;;;;;;2.40;1.55;;;;;;;;;;5012665;28;20018;-54
2021/12/12 06:36:56;;;;;;;5.00;1.88;;;;;;;;;;5012717;28;20034;-52
2021/12/12 06:39:23;;;;;;;2.65;1.42;;;15.70;76.90;;;;;;5012691;28;20092;-54
2021/12/12 06:41:51;;;;;;;2.53;1.52;;;15.80;78.70;;;;;;5012815;28;20018;-54
2021/12/12 06:44:17;;;;;;;3.22;1.73;;;;;;;;;;5012864;28;20076;-54
2021/12/12 06:46:44;;;;;;;2.47;1.67;;;;;;;;;;5012549;28;20048;-53
2021/12/12 06:49:13;;;;;;;2.50;1.90;;;15.80;78.40;;;;;;5012572;28;20519;-51
2021/12/12 06:51:44;;;;;;;1.83;1.35;;;15.80;78.00;;;;;;5012454;28;20026;-54
2021/12/12 06:54:10;;;;;;;2.30;1.83;;;;;;;;;;5012379;28;20050;-53
2021/12/12 06:56:37;;;;;;;2.90;1.35;;;15.80;78.00;;;;;;5012447;28;20034;-53
2021/12/12 06:59:04;;;;;;;2.33;1.60;;;15.80;78.00;;;;;;5012476;28;20473;-54
2021/12/12 07:01:32;;;;;;;2.40;1.38;;;15.80;77.90;;;;;;5012467;28;20033;-52
2021/12/12 07:03:58;;;;;;;3.28;1.55;;;;;;;;;;5012610;28;20022;-54
2021/12/12 07:06:27;;;;;;;3.30;1.65;;;15.70;78.10;;;;;;5012398;28;20026;-54
2021/12/12 07:08:56;;;;;;;3.47;1.42;;;15.70;75.30;;;;;;5012341;28;20037;-55
2021/12/12 07:11:24;;;;;;;2.67;1.70;;;15.60;77.60;;;;;;5012375;28;20053;-54
2021/12/12 07:13:51;;;;;;;1.65;1.42;;;15.70;77.30;;;;;;5012334;28;20065;-54
2021/12/12 07:16:19;;;;;;;2.03;1.67;;;15.60;78.30;;;;;;5012577;28;20419;-53
2021/12/12 07:18:45;;;;;;;2.65;1.70;;;;;;;;;;5012311;28;20427;-54
2021/12/12 07:21:13;;;;;;;3.78;2.20;;;15.50;77.50;;;;;;5012273;28;20044;-53
2021/12/12 07:23:41;;;;;;;3.42;2.10;;;15.60;77.80;;;;;;5012145;28;20030;-54
2021/12/12 07:26:09;;;;;;;4.45;2.08;;;15.50;77.80;;;;;;5012160;28;20117;-53
2021/12/12 07:28:36;;;;;;;3.50;1.75;;;15.50;78.00;;;;;;5012158;28;20018;-52
2021/12/12 07:31:05;;;;;;;2.42;1.60;;;15.60;78.20;;;;;;5012451;28;20034;-53
2021/12/12 07:33:32;;;;;;;2.95;1.70;;;15.40;75.30;;;;;;5012027;28;20037;-53
2021/12/12 07:36:01;;;;;;;4.05;1.80;;;15.50;78.40;;;;;;5014313;28;20488;-54
2021/12/12 07:38:29;;;;;;;4.03;1.60;;;15.40;78.00;;;;;;5015864;28;20033;-54
2021/12/12 07:40:56;;;;;;;3.42;1.92;;;15.40;78.20;;;;;;5015792;28;20558;-54
2021/12/12 07:43:23;;;;;;;3.90;2.03;;;;;;;;;;5015754;28;20499;-54
2021/12/12 07:45:49;;;;;;;2.75;1.88;;;15.30;77.60;;;;;;5015680;28;20038;-52
2021/12/12 07:48:15;;;;;;;3.88;2.00;;;;;;;;;;5015692;28;20113;-51
2021/12/12 07:50:43;;;;;;;5.80;2.22;;;15.20;77.60;;;;;;5015972;28;20026;-54
2021/12/12 07:53:09;;;;;;;4.88;2.28;;;15.30;78.30;;;;;;5015199;28;20038;-53
2021/12/12 07:55:36;;;;;;;3.35;2.00;;;15.30;74.70;;;;;;5015648;28;20057;-53
2021/12/12 07:58:07;;;;;;;2.72;1.80;;;15.00;78.20;;;;;;5015678;28;20472;-54
2021/12/12 08:00:33;;;;;;;2.97;1.88;;;;;;;;;;5015755;28;20022;-51
2021/12/12 08:02:59;;;;;;;3.63;2.42;;;;;;;;;;5015313;28;20080;-53
2021/12/12 08:05:29;;;;;;;4.30;2.08;;;15.30;78.20;;;;;;5015398;28;20045;-53
2021/12/12 08:08:03;;;;;;;3.42;2.20;;;15.10;72.60;;;;;;5015778;28;20025;-54
2021/12/12 08:10:29;;;;;;;3.15;2.00;;;14.90;78.50;;;;;;5015398;28;20392;-51
2021/12/12 08:12:56;;;;;;;2.72;1.75;;;;;;;;;;5015217;28;20041;-53
2021/12/12 08:15:22;;;;;;;3.85;2.15;;;;;;;;;;5014018;28;20033;-54
2021/12/12 08:17:48;;;;;;;3.05;2.30;;;15.50;74.90;;;;;;5015180;28;20515;-53
2021/12/12 08:20:16;;;;;;;5.03;2.13;;;15.60;76.00;;;;;;5015105;28;20603;-54
2021/12/12 08:22:43;;;;;;;3.55;1.83;;;15.70;77.80;;;;;;5015053;28;20041;-54
2021/12/12 08:25:12;;;;;;;2.78;1.98;;;15.70;77.70;;;;;;5015060;28;20113;-53
2021/12/12 08:27:39;;;;;;;3.80;2.00;;;15.70;76.30;;;;;;5015008;28;20025;-53
2021/12/12 08:30:06;;;;;;;4.38;1.75;;;15.70;76.80;;;;;;5014856;28;20030;-54
2021/12/12 08:32:33;;;;;;;4.45;2.25;;;15.80;75.70;;;;;;5014793;28;20038;-55
2021/12/12 08:34:59;;;;;;;5.78;2.50;;;;;;;;;;5014846;28;20098;-55
2021/12/12 08:37:27;;;;;;;3.03;1.95;;;15.90;77.30;;;;;;5014794;28;20038;-54
2021/12/12 08:39:54;;;;;;;3.95;2.28;;;;;;;;;;5014776;28;20080;-55
2021/12/12 08:42:20;;;;;;;3.15;2.38;;;15.90;77.20;;;;;;5014699;28;20022;-54
2021/12/12 08:44:47;;;;;;;6.63;3.10;;;;;;;;;;5014493;28;20120;-55
2021/12/12 08:47:13;;;;;;;6.07;2.90;;;;;;;;;;5013648;28;20061;-54
2021/12/12 08:49:41;;;;;;;6.13;2.80;;;15.90;77.00;;;;;;5013009;28;20507;-53
2021/12/12 08:52:19;;;;;;;5.22;2.92;;;16.00;72.00;;;;;;5013244;28;20029;-54
2021/12/12 08:54:48;;;;;;;5.72;2.60;;;15.60;77.20;;;;;;5014464;28;20452;-54
2021/12/12 08:57:32;;;;;;;5.07;2.72;;;16.20;77.30;;;;;;5014451;28;20041;-55
2021/12/12 09:00:00;;;;;;;14.05;3.60;;;15.90;77.70;;;;;;5014537;28;20476;-46
2021/12/12 09:02:26;;;;;;;10.25;2.80;;;;;;;;;;5014331;28;20033;-55
2021/12/12 09:04:57;;;;;;;10.45;2.53;;;16.00;77.60;;;;;;5014448;28;20088;-51
2021/12/12 09:07:29;;;;;;;4.82;2.55;;;16.00;77.20;;;;;;5014318;28;20022;-54
2021/12/12 09:10:28;;;;;;;9.18;2.70;;;16.10;77.30;;;;;;5014286;28;20106;-53
2021/12/12 09:13:05;;;;;;;8.63;2.47;;;16.40;77.60;;;;;;5001348;28;20050;-51
2021/12/12 09:15:48;;;;;;;2.83;2.03;;;16.60;71.30;;;;;;5014439;28;20026;-54
2021/12/12 09:18:27;;;;;;;5.70;2.40;;;16.80;76.00;;;;;;5014177;28;20103;-53
2021/12/12 09:20:59;;;;;;;3.90;1.75;;;16.90;76.10;;;;;;5014042;28;20033;-54
2021/12/12 09:23:32;;;;;;;7.10;2.45;;;17.00;75.80;;;;;;5013859;28;20093;-52
2021/12/12 09:26:23;;;;;;;5.60;3.28;;;17.10;70.10;;;;;;5014136;28;20113;-51
2021/12/12 09:29:01;;;;;;;3.88;2.00;;;17.20;70.00;;;;;;5007081;28;20041;-53
2021/12/12 09:31:35;;;;;;;8.77;2.20;;;17.30;75.20;;;;;;5013755;28;20034;-52
2021/12/12 09:34:11;;;;;;;4.07;2.35;;;17.40;70.20;;;;;;5013754;28;20109;-53
2021/12/12 09:36:37;;;;;;;6.22;2.10;;;;;;;;;;5014007;28;20037;-50
2021/12/12 09:39:27;;;;;;;3.05;1.80;;;17.70;69.80;;;;;;5013795;28;20030;-51
2021/12/12 09:42:23;;;;;;;4.40;1.98;;;17.40;69.40;;;;;;5013946;28;20428;-51
2021/12/12 09:45:08;;;;;;;4.57;2.15;;;17.40;69.20;;;;;;5013677;28;20105;-53
2021/12/12 09:51:16;;;;;;;3.80;1.67;;;17.40;69.50;;;;;;5013798;28;20083;-52
2021/12/12 09:53:42;;;;;;;2.67;1.65;;;;;;;;;;5013118;28;20563;-54
2021/12/12 09:56:17;;;;;;;3.33;1.58;;;17.40;75.00;;;;;;5013466;28;20022;-51
2021/12/12 09:59:19;;;;;;;4.80;1.83;;;17.50;75.00;;;;;;5011700;28;20488;-52
2021/12/12 10:02:07;;;;;;;3.35;1.90;;;17.50;69.00;;;;;;4980028;28;20077;-53
2021/12/12 10:04:49;;;;;;;4.30;1.52;;;17.80;74.80;;;;;;5013200;28;20030;-52
2021/12/12 10:07:33;;;;;;;5.65;2.13;;;17.70;74.70;;;;;;5013267;28;20022;-53
2021/12/12 10:10:06;;;;;;;1.75;1.10;;;17.60;74.60;;;;;;5013175;28;20036;-52
2021/12/12 10:12:43;;;;;;;4.50;2.05;;;17.60;74.60;;;;;;5013043;28;20037;-51
2021/12/12 10:15:18;;;;;;;5.13;1.65;;;17.60;74.30;;;;;;5013250;28;20053;-52
2021/12/12 10:18:07;;;;;;;2.65;1.60;;;17.50;68.50;;;;;;5013349;28;20026;-52
2021/12/12 10:20:33;;;;;;;2.08;1.50;;;;;;;;;;5013023;28;20436;-51
2021/12/12 10:23:36;;;;;;;2.75;1.27;;;17.60;68.70;;;;;;5012982;28;20026;-53
2021/12/12 10:26:11;;;;;;;2.63;1.63;;;17.60;68.50;;;;;;5012792;28;20056;-51
2021/12/12 10:29:12;;;;;;;2.90;1.70;;;17.60;68.60;;;;;;5012869;28;20032;-53
2021/12/12 10:31:47;;;;;;;4.53;1.50;;;17.60;68.80;;;;;;5012121;28;20041;-50
2021/12/12 10:34:24;;;;;;;2.92;1.77;;;17.80;69.00;;;;;;5012797;28;20184;-51
2021/12/12 10:37:08;;;;;;;2.63;1.73;;;17.50;68.40;;;;;;5012755;28;20562;-51
2021/12/12 10:39:33;;;;;;;2.65;1.65;;;;;;;;;;5013500;28;20026;-54
2021/12/12 10:42:08;;;;;;;2.33;1.75;;;17.80;74.00;;;;;;5013524;28;20080;-51
2021/12/12 10:44:42;;;;;;;2.85;1.80;;;17.90;68.20;;;;;;5012365;28;20098;-54
2021/12/12 10:47:14;;;;;;;4.95;1.90;;;17.80;67.90;;;;;;5012557;28;20024;-51
2021/12/12 10:50:04;;;;;;;2.42;1.45;;;17.90;68.00;;;;;;5012665;28;20034;-52
2021/12/12 10:52:49;;;;;;;3.80;1.80;;;17.80;67.80;;;;;;5012424;28;20570;-53
2021/12/12 10:55:21;;;;;;;3.35;1.30;;;18.10;68.00;;;;;;5012476;28;20046;-52
2021/12/12 10:57:59;;;;;;;1.90;1.58;;;18.10;73.80;;;;;;5012373;28;20385;-55
2021/12/12 11:00:30;;;;;;;3.45;1.63;;;18.00;73.50;;;;;;5012413;28;20025;-56
2021/12/12 11:03:15;;;;;;;4.03;1.50;;;18.00;67.50;;;;;;5012563;28;20133;-53
2021/12/12 11:05:47;;;;;;;2.90;1.50;;;18.20;73.30;;;;;;5012370;28;20025;-55
2021/12/12 11:08:29;;;;;;;3.70;1.70;;;18.10;67.70;;;;;;5012271;28;20026;-54
2021/12/12 11:10:58;;;;;;;4.63;1.50;;;18.20;73.40;;;;;;5015814;28;20037;-51
2021/12/12 11:13:38;;;;;;;2.97;1.75;;;18.20;67.90;;;;;;5016188;28;20038;-55
2021/12/12 11:16:35;;;;;;;2.13;1.35;;;18.20;68.20;;;;;;5016300;28;20465;-54
2021/12/12 11:19:06;;;;;;;2.40;1.60;;;18.30;73.50;;;;;;4962386;28;20043;-53
2021/12/12 11:21:42;;;;;;;3.63;1.58;;;18.40;73.20;;;;;;5016430;28;20056;-55
2021/12/12 11:24:14;;;;;;;5.50;1.60;;;18.30;73.30;;;;;;5016063;28;20026;-53
2021/12/12 11:26:52;;;;;;;2.13;1.35;;;18.30;73.30;;;;;;5016442;28;20030;-55
2021/12/12 11:29:27;;;;;;;3.97;2.00;;;18.10;73.20;;;;;;5016127;28;20447;-54
2021/12/12 11:32:09;;;;;;;2.03;1.20;;;18.40;68.20;;;;;;5016238;28;20520;-54
2021/12/12 11:34:37;;;;;;;1.95;1.33;;;18.30;73.40;;;;;;5016035;28;20564;-55
2021/12/12 11:37:12;;;;;;;2.50;1.67;;;18.50;73.30;;;;;;5016226;28;20037;-54
2021/12/12 11:39:48;;;;;;;2.22;1.45;;;18.30;73.70;;;;;;5015956;28;20095;-54
2021/12/12 11:42:21;;;;;;;3.03;2.03;;;18.40;68.10;;;;;;5015859;28;20125;-54
2021/12/12 11:45:24;;;;;;;1.95;1.50;;;18.40;68.10;;;;;;5016186;28;20058;-51
2021/12/12 11:47:55;;;;;;;2.65;1.73;;;18.30;67.60;;;;;;4997340;28;20547;-52
2021/12/12 11:50:29;;;;;;;2.58;1.55;;;18.40;73.20;;;;;;5015828;28;20062;-53
2021/12/12 11:53:04;;;;;;;4.70;1.67;;;18.50;67.80;;;;;;5015184;28;20069;-53
2021/12/12 11:55:30;;;;;;;4.95;1.45;;;;;;;;;;5015715;28;20068;-51
2021/12/12 11:58:44;;;;;;;4.57;1.73;;;18.50;67.40;;;;;;5015587;28;20058;-51
2021/12/12 12:01:20;;;;;;;2.78;1.75;;;18.50;67.10;;;;;;5002369;28;20052;-51
2021/12/12 12:04:05;;;;;;;2.33;1.58;;;18.40;67.70;;;;;;5015516;28;20036;-52
2021/12/12 12:06:31;;;;;;;2.22;1.90;;;;;;;;;;5015514;28;20030;-52
2021/12/12 12:09:28;;;;;;;1.85;1.38;;;18.50;67.40;;;;;;5015356;28;20033;-52
2021/12/12 12:12:32;;;;;;;5.15;2.00;;;18.50;67.50;;;;;;5015259;28;20033;-53
2021/12/12 12:15:21;;;;;;;1.42;1.33;;;18.30;67.50;;;;;;4992123;28;20046;-54
2021/12/12 12:18:04;;;;;;;2.10;1.60;;;18.50;67.60;;;;;;5015201;28;20038;-52
2021/12/12 12:20:41;;;;;;;1.10;1.00;;;18.30;73.10;;;;;;5014775;28;20044;-52
2021/12/12 12:23:32;;;;;;;3.45;1.70;;;18.30;67.40;;;;;;5015257;28;20022;-53
2021/12/12 12:29:02;;;;;;;4.43;1.17;;;18.30;73.30;;;;;;5015370;28;20568;-50
2021/12/12 12:31:39;;;;;;;3.72;1.27;;;18.30;67.60;;;;;;5014957;28;20113;-51
2021/12/12 12:34:42;;;;;;;2.55;1.50;;;18.30;67.60;;;;;;5014995;28;20042;-53
2021/12/12 12:38:01;;;;;;;1.85;1.23;;;18.30;67.40;;;;;;5014870;28;20034;-54
2021/12/12 12:41:11;;;;;;;3.20;1.38;;;18.30;67.30;;;;;;5014723;28;20030;-55
2021/12/12 12:43:55;;;;;;;1.23;1.13;;;18.30;67.40;;;;;;5014765;28;20488;-53
2021/12/12 12:46:58;;;;;;;1.65;1.00;;;18.40;67.50;;;;;;5014804;28;20056;-53
2021/12/12 12:50:03;;;;;;;1.80;1.20;;;18.30;67.40;;;;;;5014608;28;20030;-54
2021/12/12 12:53:07;;;;;;;1.40;1.10;;;18.30;67.10;;;;;;5014719;28;20048;-54
2021/12/12 12:55:58;;;;;;;2.17;1.23;;;18.40;67.40;;;;;;5014397;28;20041;-53
2021/12/12 12:58:24;;;;;;;1.55;1.10;;;;;;;;;;5013874;28;20145;-51
2021/12/12 13:01:12;;;;;;;1.35;1.10;;;18.30;73.00;;;;;;5014311;28;20105;-51
2021/12/12 13:04:19;;;;;;;1.90;0.98;;;18.30;66.90;;;;;;5014249;28;20080;-52
2021/12/12 13:07:49;;;;;;;9.32;1.23;;;18.30;67.60;;;;;;5005804;28;20108;-53
2021/12/12 13:10:21;;;;;;;1.70;1.10;;;18.30;67.00;;;;;;4953250;29;20478;-50
2021/12/12 13:13:29;;;;;;;1.05;0.82;;;18.60;68.00;;;;;;5013705;28;20041;-50
2021/12/12 13:15:55;;;;;;;1.45;0.85;;;;;;;;;;5012549;28;20072;-50
2021/12/12 13:18:43;;;;;;;2.28;1.17;;;18.20;67.20;;;;;;5014392;28;20046;-50
2021/12/12 13:21:21;;;;;;;1.17;1.08;;;18.20;67.20;;;;;;5014209;28;20558;-53
2021/12/12 13:24:42;;;;;;;1.77;1.00;;;18.20;67.20;;;;;;5014026;28;20029;-50
2021/12/12 13:27:31;;;;;;;1.30;1.10;;;18.30;67.20;;;;;;4953396;29;20039;-51
2021/12/12 13:30:15;;;;;;;1.58;1.10;;;18.20;67.10;;;;;;5011468;28;20065;-51
2021/12/12 13:33:18;;;;;;;2.97;1.27;;;18.30;67.20;;;;;;5013262;28;20033;-53
2021/12/12 13:36:02;;;;;;;3.60;1.20;;;18.10;67.10;;;;;;5004299;28;20042;-50
2021/12/12 13:38:56;;;;;;;1.05;0.90;;;18.20;67.60;;;;;;5013730;28;20492;-50
2021/12/12 13:41:52;;;;;;;1.75;1.00;;;18.00;67.20;;;;;;5013691;28;20037;-52
2021/12/12 13:44:28;;;;;;;2.65;0.80;;;18.20;72.50;;;;;;5013651;28;20017;-53
2021/12/12 13:47:05;;;;;;;1.27;0.80;;;18.20;67.30;;;;;;5013856;28;20018;-52
2021/12/12 13:49:41;;;;;;;1.65;1.10;;;18.20;67.00;;;;;;5013534;28;20037;-50
2021/12/12 13:52:07;;;;;;;2.30;1.00;;;;;;;;;;5013419;28;20025;-50
2021/12/12 13:55:02;;;;;;;1.55;1.23;;;18.20;66.70;;;;;;5013267;28;20054;-49
2021/12/12 13:57:59;;;;;;;1.45;1.05;;;18.20;66.70;;;;;;5013671;28;20022;-51
2021/12/12 14:00:38;;;;;;;1.98;1.00;;;18.20;66.70;;;;;;5013388;28;20030;-50
2021/12/12 14:03:27;;;;;;;1.60;0.88;;;18.40;66.50;;;;;;5013411;28;20618;-52